createdAt,value
2019-01-16T00:00:04.566Z,9.30
2019-01-16T00:02:50.706Z,9.30
2019-01-16T00:05:49.880Z,9.30
2019-01-16T00:08:35.839Z,9.30
2019-01-16T00:11:18.273Z,9.40
2019-01-16T00:14:03.649Z,9.30
2019-01-16T00:17:09.688Z,9.30
2019-01-16T00:19:55.161Z,9.30
2019-01-16T00:22:47.785Z,9.30
2019-01-16T00:25:33.979Z,9.30
2019-01-16T00:28:17.410Z,9.30
2019-01-16T00:31:04.567Z,9.30
2019-01-16T00:33:57.601Z,9.30
2019-01-16T00:36:47.216Z,9.30
2019-01-16T00:39:34.394Z,9.30
2019-01-16T00:42:38.687Z,9.30
2019-01-16T00:45:40.798Z,9.30
2019-01-16T00:48:40.099Z,9.20
2019-01-16T00:51:33.055Z,9.20
2019-01-16T00:54:20.035Z,9.30
2019-01-16T00:56:59.907Z,9.30
2019-01-16T00:59:45.004Z,9.50
2019-01-16T01:02:31.044Z,9.20
2019-01-16T01:05:27.164Z,9.30
2019-01-16T01:08:14.248Z,9.20
2019-01-16T01:10:51.673Z,9.20
2019-01-16T01:13:47.931Z,9.30
2019-01-16T01:16:23.679Z,9.20
2019-01-16T01:19:02.777Z,9.30
2019-01-16T01:21:49.790Z,9.30
2019-01-16T01:24:36.864Z,9.50
2019-01-16T01:27:22.550Z,9.20
2019-01-16T01:30:00.592Z,9.30
2019-01-16T01:32:39.043Z,9.20
2019-01-16T01:35:35.070Z,9.20
2019-01-16T01:38:29.534Z,9.20
2019-01-16T01:41:19.133Z,9.20
2019-01-16T01:44:08.846Z,9.20
2019-01-16T01:47:02.115Z,9.20
2019-01-16T01:49:58.626Z,9.20
2019-01-16T01:52:48.216Z,9.20
2019-01-16T01:55:34.568Z,9.20
2019-01-16T01:58:20.491Z,9.20
2019-01-16T02:01:13.436Z,9.20
2019-01-16T02:04:06.527Z,9.20
2019-01-16T02:06:52.340Z,9.20
2019-01-16T02:09:33.092Z,9.20
2019-01-16T02:12:25.705Z,9.20
2019-01-16T02:15:24.195Z,9.20
2019-01-16T02:18:11.276Z,9.20
2019-01-16T02:20:48.792Z,9.20
2019-01-16T02:23:38.327Z,9.20
2019-01-16T02:26:23.843Z,9.20
2019-01-16T02:29:21.990Z,9.20
2019-01-16T02:32:18.164Z,9.20
2019-01-16T02:34:55.073Z,9.20
2019-01-16T02:37:40.323Z,9.20
2019-01-16T02:40:18.942Z,9.20
2019-01-16T02:43:01.246Z,9.20
2019-01-16T02:45:54.786Z,9.20
2019-01-16T02:48:32.356Z,9.20
2019-01-16T02:51:31.271Z,9.20
2019-01-16T02:54:16.737Z,9.20
2019-01-16T02:56:56.128Z,9.20
2019-01-16T02:59:36.082Z,9.20
2019-01-16T03:02:13.331Z,9.20
2019-01-16T03:05:01.608Z,9.20
2019-01-16T03:07:40.901Z,9.20
2019-01-16T03:10:37.035Z,9.20
2019-01-16T03:13:22.384Z,9.20
2019-01-16T03:16:07.507Z,9.20
2019-01-16T03:18:55.208Z,9.20
2019-01-16T03:21:45.533Z,9.20
2019-01-16T03:24:35.396Z,9.20
2019-01-16T03:27:37.838Z,9.30
2019-01-16T03:30:30.915Z,9.20
2019-01-16T03:33:30.395Z,9.20
2019-01-16T03:36:10.027Z,9.20
2019-01-16T03:39:03.071Z,9.20
2019-01-16T03:42:01.826Z,9.20
2019-01-16T03:44:46.224Z,9.20
2019-01-16T03:47:42.169Z,9.20
2019-01-16T03:50:35.302Z,9.20
2019-01-16T03:53:22.503Z,9.20
2019-01-16T03:56:15.671Z,9.20
2019-01-16T03:58:55.463Z,9.20
2019-01-16T04:01:51.988Z,9.20
2019-01-16T04:04:39.089Z,9.20
2019-01-16T04:07:26.436Z,9.20
2019-01-16T04:10:12.387Z,9.20
2019-01-16T04:12:56.804Z,9.20
2019-01-16T04:15:35.553Z,9.20
2019-01-16T04:18:40.339Z,9.20
2019-01-16T04:21:21.246Z,9.20
2019-01-16T04:24:02.915Z,9.20
2019-01-16T04:26:38.854Z,9.20
2019-01-16T04:29:24.829Z,9.20
2019-01-16T04:32:11.917Z,9.30
2019-01-16T04:35:05.092Z,9.30
2019-01-16T04:37:42.606Z,9.30
2019-01-16T04:40:18.724Z,9.30
2019-01-16T04:43:14.278Z,9.30
2019-01-16T04:46:01.216Z,9.30
2019-01-16T04:48:44.387Z,9.30
2019-01-16T04:51:23.129Z,9.30
2019-01-16T04:54:16.108Z,9.40
2019-01-16T04:57:01.845Z,9.40
2019-01-16T04:59:48.957Z,9.40
2019-01-16T05:02:53.745Z,9.40
2019-01-16T05:05:39.680Z,9.40
2019-01-16T05:08:21.545Z,9.40
2019-01-16T05:11:11.904Z,9.40
2019-01-16T05:13:57.557Z,9.40
2019-01-16T05:16:52.617Z,9.40
2019-01-16T05:19:39.707Z,9.40
2019-01-16T05:22:29.650Z,9.40
2019-01-16T05:25:05.996Z,9.40
2019-01-16T05:27:55.611Z,9.40
2019-01-16T05:30:51.370Z,9.40
2019-01-16T05:33:28.569Z,9.30
2019-01-16T05:36:18.521Z,9.30
2019-01-16T05:39:05.117Z,9.30
2019-01-16T05:41:54.820Z,9.30
2019-01-16T05:44:40.521Z,9.30
2019-01-16T05:47:36.675Z,9.30
2019-01-16T05:50:24.151Z,9.30
2019-01-16T05:53:13.953Z,9.30
2019-01-16T05:56:01.293Z,9.30
2019-01-16T05:59:03.966Z,9.30
2019-01-16T06:02:00.277Z,9.30
2019-01-16T06:04:43.441Z,9.30
2019-01-16T06:07:29.061Z,9.30
2019-01-16T06:10:16.819Z,9.30
2019-01-16T06:13:19.004Z,9.30
2019-01-16T06:15:55.910Z,9.30
2019-01-16T06:18:41.962Z,9.30
2019-01-16T06:21:25.853Z,9.30
2019-01-16T06:24:12.804Z,9.30
2019-01-16T06:27:09.402Z,9.30
2019-01-16T06:29:58.940Z,9.30
2019-01-16T06:32:49.327Z,9.30
2019-01-16T06:35:25.832Z,9.30
2019-01-16T06:38:31.033Z,9.30
2019-01-16T06:41:18.439Z,9.30
2019-01-16T06:44:11.427Z,9.30
2019-01-16T06:46:57.429Z,9.30
2019-01-16T06:49:36.845Z,9.30
2019-01-16T06:52:20.706Z,9.30
2019-01-16T06:54:58.839Z,9.40
2019-01-16T06:57:55.241Z,9.40
2019-01-16T07:00:45.257Z,9.30
2019-01-16T07:03:36.125Z,9.40
2019-01-16T07:06:32.482Z,9.40
2019-01-16T07:09:25.663Z,9.40
2019-01-16T07:12:22.995Z,9.40
2019-01-16T07:15:13.791Z,9.40
2019-01-16T07:18:04.837Z,9.40
2019-01-16T07:20:45.865Z,9.40
2019-01-16T07:23:33.906Z,9.40
2019-01-16T07:26:18.124Z,9.40
2019-01-16T07:29:17.646Z,9.40
2019-01-16T07:32:20.649Z,9.30
2019-01-16T07:35:03.459Z,9.30
2019-01-16T07:37:50.346Z,9.30
2019-01-16T07:40:34.602Z,9.30
2019-01-16T07:43:32.869Z,9.30
2019-01-16T07:46:28.977Z,9.30
2019-01-16T07:49:14.446Z,9.30
2019-01-16T07:52:01.548Z,9.30
2019-01-16T07:54:47.501Z,9.30
2019-01-16T07:57:54.625Z,9.30
2019-01-16T08:00:51.660Z,9.30
2019-01-16T08:03:41.593Z,9.30
2019-01-16T08:06:20.238Z,9.30
2019-01-16T08:09:08.171Z,9.20
2019-01-16T08:12:04.099Z,9.30
2019-01-16T08:14:50.139Z,9.20
2019-01-16T08:17:52.450Z,9.20
2019-01-16T08:20:32.446Z,9.20
2019-01-16T08:23:22.272Z,9.20
2019-01-16T08:26:09.418Z,9.20
2019-01-16T08:29:03.969Z,9.20
2019-01-16T08:32:00.407Z,9.20
2019-01-16T08:34:56.359Z,9.20
2019-01-16T08:37:49.286Z,9.20
2019-01-16T08:40:39.528Z,9.20
2019-01-16T08:43:22.642Z,9.20
2019-01-16T08:46:08.156Z,9.40
2019-01-16T08:49:01.610Z,9.20
2019-01-16T08:51:51.386Z,9.20
2019-01-16T08:54:34.443Z,9.20
2019-01-16T08:57:27.282Z,9.20
2019-01-16T09:00:13.059Z,9.50
2019-01-16T09:03:08.986Z,9.20
2019-01-16T09:06:11.238Z,9.20
2019-01-16T09:08:59.021Z,9.20
2019-01-16T09:11:52.006Z,9.20
2019-01-16T09:14:37.747Z,9.20
2019-01-16T09:17:23.679Z,9.20
2019-01-16T09:20:20.119Z,9.30
2019-01-16T09:23:12.899Z,9.30
2019-01-16T09:26:00.005Z,9.30
2019-01-16T09:28:49.770Z,9.30
2019-01-16T09:31:45.606Z,9.30
2019-01-16T09:34:50.721Z,9.30
2019-01-16T09:37:40.350Z,9.30
2019-01-16T09:40:28.107Z,9.30
2019-01-16T09:43:21.623Z,9.30
2019-01-16T09:46:10.639Z,9.20
2019-01-16T09:49:03.938Z,9.30
2019-01-16T09:51:51.132Z,9.30
2019-01-16T09:54:53.166Z,9.20
2019-01-16T09:57:43.341Z,9.30
2019-01-16T10:00:45.069Z,9.30
2019-01-16T10:03:29.419Z,9.30
2019-01-16T10:06:20.137Z,9.30
2019-01-16T10:09:07.229Z,9.30
2019-01-16T10:11:55.652Z,9.30
2019-01-16T10:14:49.187Z,9.30
2019-01-16T10:17:40.477Z,9.30
2019-01-16T10:20:29.615Z,9.30
2019-01-16T10:23:25.946Z,9.30
2019-01-16T10:26:17.003Z,9.30
2019-01-16T10:29:02.844Z,9.30
2019-01-16T10:32:07.906Z,9.40
2019-01-16T10:35:04.015Z,9.30
2019-01-16T10:37:51.421Z,9.30
2019-01-16T10:40:47.169Z,9.60
2019-01-16T10:43:31.412Z,9.30
2019-01-16T10:46:28.756Z,9.30
2019-01-16T10:49:14.662Z,9.30
2019-01-16T10:52:04.537Z,9.30
2019-01-16T10:54:50.311Z,9.20
2019-01-16T10:57:36.443Z,9.30
2019-01-16T11:00:40.154Z,9.30
2019-01-16T11:03:34.002Z,9.20
2019-01-16T11:06:36.437Z,9.20
2019-01-16T11:09:22.375Z,9.30
2019-01-16T11:12:09.416Z,9.30
2019-01-16T11:14:56.923Z,9.30
2019-01-16T11:17:38.666Z,9.30
2019-01-16T11:20:32.589Z,9.30
2019-01-16T11:23:19.002Z,9.30
2019-01-16T11:26:09.295Z,9.30
2019-01-16T11:28:55.186Z,9.30
2019-01-16T11:31:40.955Z,9.30
2019-01-16T11:34:26.566Z,9.30
2019-01-16T11:37:13.807Z,9.30
2019-01-16T11:40:04.661Z,9.30
2019-01-16T11:42:38.858Z,9.30
2019-01-16T11:45:24.403Z,9.30
2019-01-16T11:48:10.377Z,9.30
2019-01-16T11:50:56.134Z,9.30
2019-01-16T11:53:43.366Z,9.30
2019-01-16T11:56:42.206Z,9.30
2019-01-16T11:59:33.947Z,9.30
2019-01-16T12:02:20.559Z,9.30
2019-01-16T12:05:10.961Z,9.30
2019-01-16T12:07:56.612Z,9.30
2019-01-16T12:10:56.191Z,9.40
2019-01-16T12:13:47.945Z,9.30
2019-01-16T12:16:41.200Z,9.30
2019-01-16T12:19:23.439Z,9.30
2019-01-16T12:22:09.058Z,9.30
2019-01-16T12:24:47.034Z,9.30
2019-01-16T12:27:34.171Z,9.30
2019-01-16T12:30:13.269Z,9.30
2019-01-16T12:33:12.662Z,9.30
2019-01-16T12:35:57.906Z,9.30
2019-01-16T12:38:33.006Z,9.30
2019-01-16T12:41:19.465Z,9.30
2019-01-16T12:44:05.363Z,9.30
2019-01-16T12:46:51.093Z,9.30
2019-01-16T12:49:37.550Z,9.40
2019-01-16T12:52:39.909Z,9.30
2019-01-16T12:55:28.093Z,9.30
2019-01-16T12:58:18.694Z,9.30
2019-01-16T13:01:13.567Z,9.30
2019-01-16T13:04:00.522Z,9.30
2019-01-16T13:06:54.481Z,9.30
2019-01-16T13:09:41.820Z,9.30
2019-01-16T13:12:18.571Z,9.30
2019-01-16T13:15:08.271Z,9.30
2019-01-16T13:17:54.710Z,9.30
2019-01-16T13:20:47.835Z,9.30
2019-01-16T13:23:34.956Z,9.30
2019-01-16T13:26:28.611Z,9.30
2019-01-16T13:29:18.796Z,9.40
2019-01-16T13:32:04.672Z,9.40
2019-01-16T13:34:51.061Z,9.40
2019-01-16T13:37:37.271Z,9.40
2019-01-16T13:40:25.770Z,9.40
2019-01-16T13:43:24.908Z,9.40
2019-01-16T13:46:24.243Z,9.30
2019-01-16T13:49:16.587Z,9.30
2019-01-16T13:52:04.988Z,9.30
2019-01-16T13:54:57.306Z,9.30
2019-01-16T13:57:43.493Z,9.30
2019-01-16T14:00:33.948Z,9.30
2019-01-16T14:03:30.100Z,9.30
2019-01-16T14:06:16.239Z,9.30
2019-01-16T14:09:03.744Z,9.30
2019-01-16T14:11:49.426Z,9.30
2019-01-16T14:14:35.722Z,9.30
2019-01-16T14:17:35.718Z,9.30
2019-01-16T14:20:25.042Z,9.40
2019-01-16T14:23:10.817Z,9.40
2019-01-16T14:26:06.985Z,9.40
2019-01-16T14:29:11.899Z,9.40
2019-01-16T14:32:00.700Z,9.40
2019-01-16T14:34:56.921Z,9.40
2019-01-16T14:37:36.106Z,9.40
2019-01-16T14:40:39.542Z,9.40
2019-01-16T14:43:25.000Z,9.40
2019-01-16T14:46:14.234Z,9.40
2019-01-16T14:48:51.431Z,9.40
2019-01-16T14:51:32.679Z,9.40
2019-01-16T14:54:25.517Z,9.40
2019-01-16T14:57:12.246Z,9.40
2019-01-16T14:59:59.353Z,9.40
2019-01-16T15:03:05.004Z,9.40
2019-01-16T15:05:58.779Z,9.40
2019-01-16T15:09:01.236Z,9.40
2019-01-16T15:11:46.750Z,9.50
2019-01-16T15:14:35.846Z,9.50
2019-01-16T15:17:13.133Z,9.40
2019-01-16T15:20:17.914Z,9.40
2019-01-16T15:22:57.161Z,9.50
2019-01-16T15:25:48.985Z,9.50
2019-01-16T15:28:39.299Z,9.50
2019-01-16T15:31:32.295Z,9.50
2019-01-16T15:34:10.768Z,9.50
2019-01-16T15:37:03.830Z,9.50
2019-01-16T15:40:12.449Z,9.50
2019-01-16T15:42:57.757Z,9.50
2019-01-16T15:45:43.264Z,9.50
2019-01-16T15:48:48.521Z,9.50
2019-01-16T15:51:46.313Z,9.50
2019-01-16T15:54:33.743Z,9.50
2019-01-16T15:57:22.228Z,9.50
2019-01-16T16:00:05.302Z,9.40
2019-01-16T16:02:51.625Z,9.40
2019-01-16T16:05:51.203Z,9.40
2019-01-16T16:08:44.332Z,9.50
2019-01-16T16:11:30.909Z,9.50
2019-01-16T16:14:18.005Z,9.50
2019-01-16T16:16:57.473Z,9.50
2019-01-16T16:19:49.268Z,9.40
2019-01-16T16:22:37.536Z,9.40
2019-01-16T16:25:34.274Z,9.40
2019-01-16T16:28:21.458Z,9.40
2019-01-16T16:31:06.879Z,9.40
2019-01-16T16:33:48.072Z,9.40
2019-01-16T16:36:33.171Z,9.40
2019-01-16T16:39:19.406Z,9.40
2019-01-16T16:42:06.795Z,9.40
2019-01-16T16:44:52.722Z,9.40
2019-01-16T16:47:39.519Z,9.40
2019-01-16T16:50:14.754Z,9.40
2019-01-16T16:53:17.142Z,9.40
2019-01-16T16:56:02.944Z,9.40
2019-01-16T16:58:54.422Z,9.40
2019-01-16T17:01:42.716Z,9.40
2019-01-16T17:04:42.139Z,9.30
2019-01-16T17:07:26.965Z,9.30
2019-01-16T17:10:20.656Z,9.40
2019-01-16T17:13:02.923Z,9.30
2019-01-16T17:16:08.136Z,9.50
2019-01-16T17:18:45.067Z,9.30
2019-01-16T17:21:44.041Z,9.30
2019-01-16T17:24:34.164Z,9.30
2019-01-16T17:27:13.553Z,9.30
2019-01-16T17:30:12.440Z,9.30
2019-01-16T17:32:57.856Z,9.30
2019-01-16T17:36:03.174Z,9.30
2019-01-16T17:38:49.462Z,9.30
2019-01-16T17:41:45.844Z,9.30
2019-01-16T17:44:31.903Z,9.30
2019-01-16T17:47:26.520Z,9.30
2019-01-16T17:50:19.416Z,9.30
2019-01-16T17:53:09.387Z,9.30
2019-01-16T17:55:49.680Z,9.30
2019-01-16T17:58:48.769Z,9.30
2019-01-16T18:01:47.022Z,9.30
2019-01-16T18:04:46.383Z,9.30
2019-01-16T18:07:25.363Z,9.30
2019-01-16T18:10:10.597Z,9.30
2019-01-16T18:12:54.126Z,9.20
2019-01-16T18:15:41.113Z,9.30
2019-01-16T18:18:34.466Z,9.30
2019-01-16T18:21:20.565Z,9.30
2019-01-16T18:24:15.149Z,9.20
2019-01-16T18:27:01.021Z,9.60
2019-01-16T18:29:47.525Z,9.20
2019-01-16T18:32:40.916Z,9.30
2019-01-16T18:35:43.445Z,9.30
2019-01-16T18:38:29.068Z,9.20
2019-01-16T18:41:05.846Z,9.20
2019-01-16T18:43:51.603Z,9.20
2019-01-16T18:46:44.926Z,9.20
2019-01-16T18:49:37.462Z,9.20
2019-01-16T18:52:24.546Z,9.20
2019-01-16T18:55:21.085Z,9.20
2019-01-16T18:58:23.996Z,9.20
2019-01-16T19:01:23.363Z,9.20
2019-01-16T19:04:01.057Z,9.20
2019-01-16T19:06:46.983Z,9.20
2019-01-16T19:09:33.327Z,9.20
2019-01-16T19:12:29.490Z,9.20
2019-01-16T19:15:34.885Z,9.20
2019-01-16T19:18:22.164Z,9.20
2019-01-16T19:21:12.264Z,9.20
2019-01-16T19:24:11.452Z,9.10
2019-01-16T19:26:47.944Z,9.10
2019-01-16T19:29:41.541Z,9.10
2019-01-16T19:32:27.671Z,9.10
2019-01-16T19:35:15.480Z,9.10
2019-01-16T19:38:14.880Z,9.10
2019-01-16T19:41:00.837Z,9.20
2019-01-16T19:43:46.864Z,9.10
2019-01-16T19:46:33.470Z,9.10
2019-01-16T19:49:29.955Z,9.10
2019-01-16T19:52:32.960Z,9.10
2019-01-16T19:55:26.232Z,9.10
2019-01-16T19:58:17.372Z,9.10
2019-01-16T20:01:10.972Z,9.10
2019-01-16T20:04:04.549Z,9.10
2019-01-16T20:06:55.519Z,9.10
2019-01-16T20:09:46.432Z,9.10
2019-01-16T20:12:40.256Z,9.10
2019-01-16T20:15:37.223Z,9.10
2019-01-16T20:18:29.250Z,9.10
2019-01-16T20:21:16.244Z,9.10
2019-01-16T20:23:57.135Z,9.10
2019-01-16T20:26:37.558Z,9.10
2019-01-16T20:29:17.224Z,9.10
2019-01-16T20:32:02.841Z,9.10
2019-01-16T20:34:53.077Z,9.10
2019-01-16T20:37:31.379Z,9.10
2019-01-16T20:40:21.675Z,9.10
2019-01-16T20:43:15.283Z,9.10
2019-01-16T20:46:01.693Z,9.10
2019-01-16T20:48:47.815Z,9.10
2019-01-16T20:51:41.074Z,9.10
2019-01-16T20:54:27.323Z,9.10
2019-01-16T20:57:08.195Z,9.10
2019-01-16T21:00:01.632Z,9.20
2019-01-16T21:02:52.320Z,9.10
2019-01-16T21:05:34.866Z,9.10
2019-01-16T21:08:30.989Z,9.10
2019-01-16T21:11:17.145Z,9.20
2019-01-16T21:14:08.273Z,9.20
2019-01-16T21:16:54.969Z,9.20
2019-01-16T21:19:37.928Z,9.20
2019-01-16T21:22:42.568Z,9.20
2019-01-16T21:25:19.913Z,9.10
2019-01-16T21:28:16.862Z,9.20
2019-01-16T21:31:01.521Z,9.20
2019-01-16T21:33:49.528Z,9.10
2019-01-16T21:36:42.703Z,9.20
2019-01-16T21:39:36.072Z,9.20
2019-01-16T21:42:22.151Z,9.20
2019-01-16T21:45:11.776Z,9.10
2019-01-16T21:47:53.013Z,9.10
2019-01-16T21:50:38.790Z,9.10
2019-01-16T21:53:32.120Z,9.10
2019-01-16T21:56:25.389Z,9.10
2019-01-16T21:59:08.130Z,9.10
2019-01-16T22:01:55.891Z,9.10
2019-01-16T22:04:49.007Z,9.10
2019-01-16T22:07:42.146Z,9.10
2019-01-16T22:10:28.384Z,9.10
2019-01-16T22:13:09.559Z,9.10
2019-01-16T22:15:47.967Z,9.00
2019-01-16T22:18:36.065Z,9.10
2019-01-16T22:21:14.314Z,9.00
2019-01-16T22:24:00.424Z,9.00
2019-01-16T22:26:41.817Z,9.00
2019-01-16T22:29:31.706Z,9.00
2019-01-16T22:32:19.415Z,9.00
2019-01-16T22:35:05.232Z,9.00
2019-01-16T22:37:48.959Z,9.00
2019-01-16T22:40:31.798Z,9.00
2019-01-16T22:43:18.459Z,8.90
2019-01-16T22:46:00.489Z,8.90
2019-01-16T22:48:54.406Z,8.90
2019-01-16T22:51:42.046Z,8.90
2019-01-16T22:54:41.148Z,8.90
2019-01-16T22:57:28.654Z,8.90
2019-01-16T23:00:14.870Z,8.90
2019-01-16T23:02:53.667Z,8.90
2019-01-16T23:05:58.715Z,8.90
2019-01-16T23:08:44.426Z,8.90
2019-01-16T23:11:30.067Z,8.90
2019-01-16T23:14:16.393Z,8.90
2019-01-16T23:17:15.444Z,8.90
2019-01-16T23:20:03.210Z,8.90
2019-01-16T23:22:45.295Z,8.90
2019-01-16T23:25:42.633Z,8.90
2019-01-16T23:28:48.024Z,8.90
2019-01-16T23:31:34.052Z,8.90
2019-01-16T23:34:30.724Z,8.90
2019-01-16T23:37:10.617Z,8.90
2019-01-16T23:40:06.979Z,8.90
2019-01-16T23:43:02.869Z,8.90
2019-01-16T23:45:41.584Z,8.90
2019-01-16T23:48:40.871Z,8.80
2019-01-16T23:51:22.179Z,8.80
2019-01-16T23:54:08.330Z,8.80
2019-01-16T23:57:04.860Z,8.80
2019-01-16T23:59:51.896Z,8.80
